Time;durP1;ratioP1;P1;durP2;ratioP2;P2;SDS_P1;SDS_P2;PMS_P1;PMS_P2;Temp;Humidity;BMP_temperature;BMP_pressure;BME280_temperature;BME280_humidity;BME280_pressure;Samples;Min_cycle;Max_cycle;Signal;HPM_P1;HPM_P2
2022/03/28 00:02:14;;;;;;;12.67;10.27;;;;;;;8.00;56.46;97485.34;5054568;28;20211;-57
2022/03/28 00:04:41;;;;;;;13.93;10.90;;;;;;;7.91;57.40;97487.75;5054594;28;20206;-55
2022/03/28 00:07:08;;;;;;;12.70;10.37;;;;;;;8.02;56.66;97482.59;5054709;28;20214;-57
2022/03/28 00:09:35;;;;;;;14.23;10.80;;;;;;;8.02;56.90;97488.69;5054509;28;20210;-56
2022/03/28 00:12:01;;;;;;;12.00;10.60;;;;;;;7.99;56.53;97483.66;5046718;28;20218;-56
2022/03/28 00:14:28;;;;;;;12.23;9.97;;;;;;;8.03;56.32;97479.00;5049081;28;20633;-56
2022/03/28 00:16:56;;;;;;;13.67;10.53;;;;;;;8.08;55.80;97470.81;5054268;28;20583;-56
2022/03/28 00:19:22;;;;;;;13.57;10.50;;;;;;;8.04;56.08;97478.06;5052895;28;20324;-56
2022/03/28 00:21:50;;;;;;;14.07;10.50;;;;;;;8.02;56.73;97470.25;5054845;28;20207;-54
2022/03/28 00:24:18;;;;;;;13.30;10.97;;;;;;;7.99;57.25;97478.38;5056924;28;20214;-54
2022/03/28 00:26:45;;;;;;;11.60;10.40;;;;;;;7.96;57.06;97467.22;5058408;28;20222;-55
2022/03/28 00:29:11;;;;;;;11.70;10.17;;;;;;;7.95;57.02;97482.19;5059085;28;20214;-57
2022/03/28 00:31:37;;;;;;;10.90;9.80;;;;;;;7.95;57.52;97476.91;5055471;28;20573;-62
2022/03/28 00:34:06;;;;;;;12.10;9.77;;;;;;;7.92;57.39;97473.66;5053746;28;20207;-61
2022/03/28 00:36:32;;;;;;;13.13;10.23;;;;;;;7.92;57.42;97468.38;5055025;28;20209;-60
2022/03/28 00:38:59;;;;;;;13.40;10.50;;;;;;;7.90;57.29;97468.47;5055333;28;20241;-62
2022/03/28 00:41:27;;;;;;;13.93;10.20;;;;;;;7.92;56.89;97474.50;5053806;28;20631;-59
2022/03/28 00:43:55;;;;;;;12.60;9.80;;;;;;;7.93;56.97;97470.91;5054106;28;20207;-60
2022/03/28 00:46:22;;;;;;;11.80;10.27;;;;;;;7.85;57.87;97470.59;5045193;28;20222;-61
2022/03/28 00:48:49;;;;;;;14.13;11.70;;;;;;;7.79;57.40;97465.75;5061458;28;20214;-60
2022/03/28 00:51:18;;;;;;;13.37;10.17;;;;;;;7.74;58.32;97457.31;5060682;28;20619;-61
2022/03/28 00:53:45;;;;;;;11.43;10.10;;;;;;;7.78;59.06;97464.06;5060342;28;20207;-59
2022/03/28 00:56:12;;;;;;;12.67;11.30;;;;;;;7.72;58.67;97459.22;5061860;28;20197;-60
2022/03/28 00:58:40;;;;;;;13.03;11.03;;;;;;;7.73;58.48;97454.78;5062939;28;20203;-59
2022/03/28 01:01:09;;;;;;;13.50;11.03;;;;;;;7.72;58.19;97455.75;5063457;28;20518;-58
2022/03/28 01:03:36;;;;;;;13.00;10.93;;;;;;;7.49;59.75;97450.28;5057572;28;20195;-58
2022/03/28 01:06:02;;;;;;;13.20;11.47;;;;;;;7.40;59.70;97450.88;5056978;28;20207;-58
2022/03/28 01:08:29;;;;;;;12.07;10.80;;;;;;;7.33;60.37;97459.31;5056886;28;20202;-59
2022/03/28 01:10:57;;;;;;;12.97;11.60;;;;;;;7.27;61.22;97457.06;5057290;28;20590;-60
2022/03/28 01:13:24;;;;;;;15.27;11.67;;;;;;;7.28;61.31;97453.50;5057260;28;20200;-57
2022/03/28 01:15:53;;;;;;;14.20;10.90;;;;;;;7.14;62.00;97449.16;5057377;28;20644;-58
2022/03/28 01:18:18;;;;;;;14.00;10.90;;;;;;;7.13;61.87;97454.53;5057199;28;20210;-58
2022/03/28 01:20:45;;;;;;;12.57;11.17;;;;;;;7.22;60.54;97451.28;5057097;28;20230;-58
2022/03/28 01:23:13;;;;;;;13.67;11.20;;;;;;;7.24;60.19;97446.75;5057265;28;20217;-57
2022/03/28 01:25:39;;;;;;;13.20;11.03;;;;;;;7.16;61.20;97444.63;5056594;28;20243;-54
2022/03/28 01:28:06;;;;;;;14.40;10.87;;;;;;;7.11;61.68;97444.13;5057060;28;20211;-54
2022/03/28 01:30:34;;;;;;;13.73;10.63;;;;;;;7.14;60.87;97445.69;5050824;28;20208;-55
2022/03/28 01:33:01;;;;;;;13.53;11.10;;;;;;;7.11;61.09;97435.38;5059261;28;20199;-53
2022/03/28 01:35:38;;;;;;;13.70;10.50;;;;;;;7.11;61.25;97438.88;5060470;28;20214;-54
2022/03/28 01:38:07;;;;;;;15.63;11.63;;;;;;;7.08;60.86;97438.22;5062250;28;20252;-55
2022/03/28 01:40:36;;;;;;;15.03;11.23;;;;;;;7.05;61.19;97433.16;5059816;28;20689;-54
2022/03/28 01:43:03;;;;;;;13.70;11.13;;;;;;;6.98;60.77;97430.94;5060805;28;20196;-55
2022/03/28 01:45:30;;;;;;;13.57;12.07;;;;;;;6.96;61.53;97435.47;5064225;28;20234;-54
2022/03/28 01:47:57;;;;;;;12.47;11.00;;;;;;;6.79;62.33;97446.25;5064163;28;20199;-54
2022/03/28 01:50:23;;;;;;;13.07;11.67;;;;;;;6.81;62.13;97428.56;5061937;28;20515;-54
2022/03/28 01:52:50;;;;;;;12.57;11.33;;;;;;;6.87;61.38;97433.41;5058187;28;20195;-54
2022/03/28 01:55:17;;;;;;;14.63;11.10;;;;;;;6.86;60.83;97431.75;5056753;28;20252;-54
2022/03/28 01:57:45;;;;;;;14.27;11.10;;;;;;;6.88;60.89;97437.75;5056841;28;20214;-53
2022/03/28 02:00:19;;;;;;;14.17;11.80;;;;;;;6.82;61.98;97435.53;5056321;28;20231;-54
2022/03/28 02:02:47;;;;;;;13.83;10.83;;;;;;;6.85;62.13;97434.47;5056536;28;20210;-54
2022/03/28 02:05:14;;;;;;;14.63;10.90;;;;;;;6.79;63.32;97430.47;5056762;28;20211;-54
2022/03/28 02:07:41;;;;;;;12.63;10.87;;;;;;;6.60;63.91;97429.97;5056427;28;20203;-54
2022/03/28 02:10:10;;;;;;;13.97;11.70;;;;;;;6.54;63.81;97435.63;5056813;28;20206;-55
2022/03/28 02:12:37;;;;;;;16.87;11.73;;;;;;;6.54;64.14;97435.63;5056894;28;20203;-53
2022/03/28 02:15:07;;;;;;;14.73;10.60;;;;;;;6.57;63.11;97432.81;5056323;28;20218;-54
2022/03/28 02:17:34;;;;;;;13.43;11.27;;;;;;;6.42;64.35;97431.16;5055957;28;20249;-57
2022/03/28 02:20:00;;;;;;;14.80;11.63;;;;;;;6.46;64.62;97430.03;5042921;28;20237;-57
2022/03/28 02:22:27;;;;;;;14.50;12.13;;;;;;;6.51;63.39;97430.59;5055770;28;20214;-58
2022/03/28 02:24:53;;;;;;;13.37;11.53;;;;;;;6.57;63.49;97429.34;5055553;28;20235;-55
2022/03/28 02:27:20;;;;;;;14.17;12.13;;;;;;;6.62;64.02;97436.00;5055792;28;20631;-55
2022/03/28 02:29:46;;;;;;;14.03;11.60;;;;;;;6.71;63.91;97445.91;5055892;28;20216;-56
2022/03/28 02:32:14;;;;;;;13.50;10.97;;;;;;;6.66;63.22;97439.25;5050392;28;20223;-55
2022/03/28 02:34:41;;;;;;;15.30;11.53;;;;;;;6.68;63.67;97435.59;5070805;28;20214;-55
2022/03/28 02:37:09;;;;;;;13.50;11.50;;;;;;;6.72;63.64;97438.84;5063177;28;20269;-54
2022/03/28 02:39:36;;;;;;;14.93;11.80;;;;;;;6.62;64.67;97438.63;5057265;28;20245;-56
2022/03/28 02:42:03;;;;;;;14.23;12.10;;;;;;;6.52;65.44;97429.63;5055876;28;20553;-56
2022/03/28 02:44:30;;;;;;;15.17;12.13;;;;;;;6.30;65.67;97421.44;5056865;28;20504;-57
2022/03/28 02:46:57;;;;;;;12.77;11.43;;;;;;;6.41;64.27;97429.50;5057457;28;20640;-56
2022/03/28 02:49:27;;;;;;;14.13;11.33;;;;;;;6.42;63.83;97425.91;5061201;28;20208;-56
2022/03/28 02:51:54;;;;;;;13.07;11.03;;;;;;;6.25;65.00;97432.25;5050793;28;20202;-56
2022/03/28 02:54:20;;;;;;;17.47;12.67;;;;;;;6.34;64.21;97428.19;5058912;28;20650;-57
2022/03/28 02:56:47;;;;;;;14.43;11.97;;;;;;;6.33;64.23;97431.75;5055544;28;20536;-58
2022/03/28 02:59:14;;;;;;;12.03;10.83;;;;;;;6.37;65.54;97434.09;5055701;28;20217;-60
2022/03/28 03:01:41;;;;;;;13.20;11.20;;;;;;;6.44;64.74;97438.03;5055650;28;20203;-58
2022/03/28 03:04:07;;;;;;;15.43;11.43;;;;;;;6.29;66.00;97430.25;5055555;28;20222;-57
2022/03/28 03:06:35;;;;;;;13.13;10.90;;;;;;;6.27;65.11;97419.03;5047809;28;20203;-57
2022/03/28 03:09:01;;;;;;;13.53;11.80;;;;;;;6.23;65.74;97426.25;5050045;28;20211;-57
2022/03/28 03:11:28;;;;;;;12.60;11.30;;;;;;;6.28;65.26;97431.19;5056457;28;20200;-56
2022/03/28 03:13:56;;;;;;;13.23;11.10;;;;;;;6.27;66.13;97421.66;5055836;28;20221;-55
2022/03/28 03:16:23;;;;;;;13.70;11.50;;;;;;;6.22;66.19;97427.19;5054856;28;20245;-54
2022/03/28 03:18:50;;;;;;;13.73;11.73;;;;;;;6.24;67.02;97425.28;5054265;28;20257;-55
2022/03/28 03:21:17;;;;;;;12.83;11.17;;;;;;;6.27;65.53;97430.34;5042043;28;20230;-54
2022/03/28 03:23:44;;;;;;;15.10;12.57;;;;;;;6.26;66.07;97425.22;5055735;28;20203;-56
2022/03/28 03:26:11;;;;;;;13.93;11.07;;;;;;;6.10;66.94;97424.47;5055057;28;20250;-59
2022/03/28 03:28:37;;;;;;;14.40;12.27;;;;;;;6.19;66.63;97416.88;5066654;28;20213;-61
2022/03/28 03:31:06;;;;;;;18.27;12.00;;;;;;;6.19;66.69;97411.63;5056105;28;20207;-61
2022/03/28 03:33:32;;;;;;;16.43;11.93;;;;;;;6.12;66.90;97417.38;5051745;28;20219;-60
2022/03/28 03:36:00;;;;;;;15.20;12.40;;;;;;;6.13;66.35;97417.25;5055186;28;20219;-60
2022/03/28 03:38:26;;;;;;;14.60;11.70;;;;;;;6.00;67.59;97417.19;5055193;28;20206;-60
2022/03/28 03:40:54;;;;;;;16.17;11.87;;;;;;;6.03;67.95;97410.03;5054948;28;20219;-60
2022/03/28 03:43:21;;;;;;;15.43;11.60;;;;;;;6.04;68.01;97409.97;5055310;28;20214;-60
2022/03/28 03:45:48;;;;;;;13.30;11.80;;;;;;;6.02;67.35;97416.25;5054852;28;20238;-61
2022/03/28 03:48:15;;;;;;;14.40;12.20;;;;;;;6.05;67.55;97416.06;5054789;28;20642;-60
2022/03/28 03:50:41;;;;;;;14.57;11.87;;;;;;;6.09;67.15;97420.19;5055319;28;20539;-60
2022/03/28 03:53:08;;;;;;;15.23;12.80;;;;;;;5.94;68.15;97408.84;5055141;28;20239;-61
2022/03/28 03:55:35;;;;;;;15.93;12.23;;;;;;;6.05;67.63;97416.06;5054998;28;20207;-60
2022/03/28 03:58:03;;;;;;;13.43;11.33;;;;;;;6.04;67.79;97419.63;5054872;28;20541;-61
2022/03/28 04:00:29;;;;;;;14.60;11.73;;;;;;;6.02;67.99;97418.88;5055232;28;20284;-58
2022/03/28 04:02:56;;;;;;;15.20;12.37;;;;;;;6.08;67.92;97415.88;5070960;28;20694;-61
2022/03/28 04:05:23;;;;;;;14.20;11.47;;;;;;;5.97;68.33;97416.53;5064047;28;20189;-61
2022/03/28 04:07:49;;;;;;;17.10;11.63;;;;;;;5.98;68.98;97416.47;5073774;28;20206;-60
2022/03/28 04:10:16;;;;;;;14.23;11.57;;;;;;;5.97;68.77;97414.75;5072021;28;20214;-60
2022/03/28 04:12:43;;;;;;;18.33;12.80;;;;;;;5.85;68.42;97420.72;5059419;28;20219;-60
2022/03/28 04:15:11;;;;;;;13.83;11.47;;;;;;;5.87;68.14;97418.91;5056337;28;20215;-60
2022/03/28 04:17:41;;;;;;;15.33;12.50;;;;;;;5.89;67.99;97419.63;5054326;28;20203;-60
2022/03/28 04:20:10;;;;;;;15.83;12.47;;;;;;;5.88;68.62;97417.13;5053926;28;20231;-60
2022/03/28 04:22:37;;;;;;;16.10;12.67;;;;;;;5.80;69.25;97416.72;5054437;28;20218;-61
2022/03/28 04:25:06;;;;;;;16.10;12.37;;;;;;;5.88;68.45;97417.94;5054286;28;20235;-55
2022/03/28 04:27:33;;;;;;;16.37;12.63;;;;;;;5.88;68.17;97415.31;5054769;28;20281;-56
2022/03/28 04:30:02;;;;;;;14.23;12.07;;;;;;;5.92;68.63;97411.56;5048295;28;20199;-57
2022/03/28 04:32:30;;;;;;;14.73;11.73;;;;;;;5.96;68.66;97418.31;5057423;28;20221;-58
2022/03/28 04:34:56;;;;;;;14.33;11.50;;;;;;;6.02;68.33;97424.13;5064843;28;20290;-57
2022/03/28 04:37:25;;;;;;;14.83;12.70;;;;;;;6.04;68.13;97420.47;5052089;28;20207;-56
2022/03/28 04:39:52;;;;;;;16.10;12.20;;;;;;;5.96;68.47;97423.56;5058581;28;20237;-57
2022/03/28 04:42:18;;;;;;;15.80;12.10;;;;;;;5.98;67.72;97421.72;5057562;28;20639;-57
2022/03/28 04:44:45;;;;;;;13.03;11.30;;;;;;;5.98;67.55;97420.84;5057859;28;20199;-57
2022/03/28 04:47:12;;;;;;;13.53;11.90;;;;;;;5.94;67.34;97425.47;5052289;28;20310;-57
2022/03/28 04:49:40;;;;;;;15.40;12.73;;;;;;;5.93;67.31;97418.50;5048810;28;20207;-56
2022/03/28 04:52:07;;;;;;;19.27;13.50;;;;;;;5.94;67.20;97424.59;5057736;28;20249;-57
2022/03/28 04:54:36;;;;;;;15.23;11.60;;;;;;;5.96;67.27;97417.47;5058198;28;20234;-57
2022/03/28 04:57:03;;;;;;;15.40;12.33;;;;;;;5.85;68.97;97425.13;5057454;28;20238;-57
2022/03/28 04:59:31;;;;;;;15.13;12.30;;;;;;;5.81;69.51;97416.59;5058378;28;20635;-56
2022/03/28 05:01:57;;;;;;;14.90;11.77;;;;;;;5.84;68.15;97424.31;5059017;28;20230;-56
2022/03/28 05:04:24;;;;;;;15.00;11.73;;;;;;;5.91;68.14;97419.56;5059847;28;20215;-56
2022/03/28 05:06:52;;;;;;;14.40;11.97;;;;;;;5.92;68.51;97429.09;5061515;28;20199;-57
2022/03/28 05:09:20;;;;;;;15.97;12.03;;;;;;;5.98;67.94;97421.72;5068199;28;20198;-57
2022/03/28 05:11:47;;;;;;;14.93;11.87;;;;;;;5.98;68.19;97420.84;5069058;28;20234;-57
2022/03/28 05:14:14;;;;;;;14.60;12.00;;;;;;;5.88;68.00;97425.00;5063073;28;20210;-58
2022/03/28 05:16:41;;;;;;;14.87;12.53;;;;;;;5.61;69.18;97432.75;5056099;28;20211;-58
2022/03/28 05:19:07;;;;;;;14.87;12.17;;;;;;;5.62;69.89;97431.81;5053521;28;20215;-58
2022/03/28 05:21:34;;;;;;;14.40;11.73;;;;;;;5.53;70.70;97428.91;5060389;28;20231;-58
2022/03/28 05:24:02;;;;;;;15.47;12.37;;;;;;;5.62;69.87;97430.97;5047002;28;20211;-58
2022/03/28 05:26:30;;;;;;;15.33;12.33;;;;;;;5.51;70.37;97423.75;5057010;28;20238;-58
2022/03/28 05:28:56;;;;;;;15.40;12.73;;;;;;;5.48;70.22;97431.81;5058386;28;20211;-58
2022/03/28 05:31:23;;;;;;;15.40;12.30;;;;;;;5.50;70.63;97425.53;5044624;28;20200;-57
2022/03/28 05:33:50;;;;;;;17.57;12.80;;;;;;;5.56;70.45;97431.34;5065570;28;20281;-58
2022/03/28 05:36:16;;;;;;;18.13;12.07;;;;;;;5.53;71.28;97434.97;5063985;28;20211;-57
2022/03/28 05:38:43;;;;;;;14.13;12.63;;;;;;;5.65;70.41;97434.25;5048043;28;20241;-58
2022/03/28 05:41:11;;;;;;;16.53;11.80;;;;;;;5.77;69.95;97423.00;5069291;28;20227;-57
2022/03/28 05:43:39;;;;;;;15.90;12.60;;;;;;;5.71;70.26;97433.84;5051681;28;20314;-57
2022/03/28 05:46:06;;;;;;;15.00;12.80;;;;;;;5.77;70.12;97433.50;5068720;28;20222;-56
2022/03/28 05:48:33;;;;;;;17.80;13.10;;;;;;;5.75;70.59;97435.38;5066590;28;20211;-57
2022/03/28 05:50:59;;;;;;;16.33;12.97;;;;;;;5.86;69.86;97442.59;5056645;28;20203;-57
2022/03/28 05:53:25;;;;;;;17.93;12.90;;;;;;;5.88;70.76;97436.31;5056389;28;20298;-58
2022/03/28 05:55:52;;;;;;;20.67;15.87;;;;;;;6.06;69.40;97434.31;5056240;28;20624;-57
2022/03/28 05:58:20;;;;;;;25.40;19.17;;;;;;;6.26;69.55;97441.81;5056416;28;20537;-58
2022/03/28 06:00:46;;;;;;;18.10;12.83;;;;;;;6.46;69.35;97444.00;5056878;28;20226;-58
2022/03/28 06:03:13;;;;;;;15.63;12.33;;;;;;;7.04;67.74;97436.75;5058765;28;20211;-57
2022/03/28 06:05:39;;;;;;;15.43;12.63;;;;;;;7.91;64.04;97438.56;5071064;28;20206;-58
2022/03/28 06:08:07;;;;;;;16.80;13.20;;;;;;;8.55;62.68;97443.72;5059336;28;20214;-57
2022/03/28 06:10:34;;;;;;;18.57;13.80;;;;;;;8.95;61.59;97438.06;5068914;28;20299;-57
2022/03/28 06:13:01;;;;;;;19.27;12.43;;;;;;;9.31;59.40;97444.19;5068676;28;20217;-58
2022/03/28 06:15:30;;;;;;;16.77;13.17;;;;;;;9.56;59.11;97435.22;5070793;28;20222;-58
2022/03/28 06:17:57;;;;;;;17.40;13.60;;;;;;;9.62;58.38;97434.75;5074419;28;20211;-58
2022/03/28 06:20:24;;;;;;;14.90;13.03;;;;;;;9.93;57.21;97434.91;5056493;28;20219;-57
2022/03/28 06:22:50;;;;;;;14.87;13.27;;;;;;;10.07;56.70;97436.47;5056456;28;20218;-58
2022/03/28 06:25:17;;;;;;;14.37;12.77;;;;;;;9.92;57.97;97440.28;5056087;28;20249;-58
2022/03/28 06:27:44;;;;;;;17.90;13.17;;;;;;;10.12;57.05;97436.09;5051989;28;20215;-58
2022/03/28 06:30:13;;;;;;;14.93;13.27;;;;;;;10.49;56.40;97440.16;5049746;28;20207;-57
2022/03/28 06:32:40;;;;;;;14.23;12.80;;;;;;;10.71;55.66;97437.47;5078291;28;20279;-57
2022/03/28 06:35:08;;;;;;;14.33;12.83;;;;;;;11.23;54.88;97441.16;5063520;28;20237;-58
2022/03/28 06:37:34;;;;;;;18.63;13.57;;;;;;;11.31;53.38;97444.81;5072033;28;20203;-58
2022/03/28 06:40:03;;;;;;;15.03;13.20;;;;;;;11.77;51.40;97446.28;5077409;28;20565;-58
2022/03/28 06:42:30;;;;;;;19.47;14.00;;;;;;;12.12;51.74;97440.59;5079060;28;20214;-58
2022/03/28 06:44:56;;;;;;;17.23;13.43;;;;;;;12.55;50.20;97438.50;5071026;28;20510;-58
2022/03/28 06:47:22;;;;;;;22.37;15.00;;;;;;;12.84;49.90;97444.72;5068139;28;20275;-57
2022/03/28 06:49:50;;;;;;;16.10;14.07;;;;;;;12.89;46.23;97441.66;5076248;28;20218;-58
2022/03/28 06:52:17;;;;;;;17.07;14.13;;;;;;;13.41;45.77;97443.94;5067959;28;20204;-59
2022/03/28 06:54:43;;;;;;;17.40;13.40;;;;;;;13.55;43.81;97437.34;5058648;28;20294;-58
2022/03/28 06:57:10;;;;;;;20.00;14.27;;;;;;;13.65;43.73;97437.34;5055430;28;20207;-58
2022/03/28 06:59:36;;;;;;;21.20;14.13;;;;;;;13.86;45.22;97420.22;5055530;28;20211;-58
2022/03/28 07:02:03;;;;;;;20.40;13.97;;;;;;;13.90;46.03;97426.94;5055236;28;20238;-58
2022/03/28 07:04:30;;;;;;;24.97;15.50;;;;;;;14.31;43.42;97432.81;5055292;28;20624;-57
2022/03/28 07:06:58;;;;;;;26.23;15.90;;;;;;;14.19;42.99;97429.47;5055493;28;20562;-59
2022/03/28 07:09:25;;;;;;;23.90;14.63;;;;;;;14.42;43.58;97424.63;5055400;28;20203;-57
2022/03/28 07:11:53;;;;;;;29.93;14.57;;;;;;;14.29;44.51;97426.78;5055369;28;20265;-58
2022/03/28 07:14:20;;;;;;;20.47;14.80;;;;;;;13.90;43.26;97424.25;5042036;28;20555;-58
2022/03/28 07:16:46;;;;;;;19.77;14.47;;;;;;;13.99;43.01;97429.72;5055577;28;20600;-58
2022/03/28 07:19:13;;;;;;;25.10;14.63;;;;;;;13.64;45.71;97433.81;5063849;28;20207;-57
2022/03/28 07:21:39;;;;;;;21.50;15.90;;;;;;;13.38;45.40;97430.09;5074730;28;20282;-58
2022/03/28 07:24:08;;;;;;;21.80;14.93;;;;;;;13.22;45.28;97427.16;5074358;28;20187;-58
2022/03/28 07:26:34;;;;;;;24.77;15.73;;;;;;;13.19;44.65;97427.44;5064038;28;20270;-58
2022/03/28 07:29:02;;;;;;;25.10;18.27;;;;;;;12.89;47.32;97426.56;5055910;28;20641;-58
2022/03/28 07:31:29;;;;;;;19.87;14.93;;;;;;;12.61;48.51;97430.00;5055457;28;20276;-59
2022/03/28 07:34:29;;;;;;;19.63;15.50;;;;;;;12.66;47.88;97425.13;5052231;28;20227;-58
2022/03/28 07:36:43;;;;;;;19.57;15.90;;;;;;;12.41;47.07;97418.50;5054447;28;20217;-58
2022/03/28 07:39:11;;;;;;;19.83;15.50;;;;;;;12.49;47.16;97423.16;5055178;28;20298;-58
2022/03/28 07:41:37;;;;;;;20.07;16.27;;;;;;;12.31;48.78;97420.31;5054492;28;20226;-58
2022/03/28 07:44:05;;;;;;;22.13;15.73;;;;;;;12.28;47.48;97415.28;5055148;28;20211;-59
2022/03/28 07:46:31;;;;;;;23.63;15.50;;;;;;;12.42;48.58;97411.41;5054706;28;20211;-59
2022/03/28 07:48:58;;;;;;;19.90;15.80;;;;;;;12.53;48.00;97419.25;5054982;28;20203;-58
2022/03/28 07:51:24;;;;;;;20.00;16.10;;;;;;;12.52;48.15;97417.56;5055336;28;20211;-58
2022/03/28 07:53:52;;;;;;;20.10;16.03;;;;;;;12.61;47.63;97413.25;5054728;28;20211;-58
2022/03/28 07:56:20;;;;;;;18.60;15.30;;;;;;;12.68;48.34;97412.56;5054562;28;20627;-58
2022/03/28 07:58:47;;;;;;;19.33;15.20;;;;;;;12.85;47.90;97414.56;5049008;28;20529;-58
2022/03/28 08:01:13;;;;;;;19.10;15.47;;;;;;;12.98;47.32;97403.66;5047486;28;20253;-58
2022/03/28 08:03:40;;;;;;;22.27;14.63;;;;;;;13.02;46.33;97402.41;5054453;28;20207;-59
2022/03/28 08:06:06;;;;;;;19.93;15.93;;;;;;;12.89;45.22;97400.00;5058914;28;20225;-59
2022/03/28 08:08:35;;;;;;;16.17;14.43;;;;;;;13.08;45.91;97401.00;5058925;28;20199;-59
2022/03/28 08:11:02;;;;;;;20.27;14.63;;;;;;;13.11;46.31;97408.75;5058862;28;20639;-58
2022/03/28 08:13:29;;;;;;;17.27;14.83;;;;;;;13.22;46.58;97400.59;5048549;28;20513;-58
2022/03/28 08:15:56;;;;;;;24.77;14.27;;;;;;;13.34;47.70;97399.47;5060471;28;20207;-59
2022/03/28 08:18:22;;;;;;;16.60;13.83;;;;;;;13.38;45.66;97390.25;5052672;28;20234;-58
2022/03/28 08:20:49;;;;;;;14.57;13.07;;;;;;;13.51;46.14;97390.78;5058133;28;20219;-59
2022/03/28 08:23:16;;;;;;;19.43;13.90;;;;;;;13.60;45.08;97392.59;5058211;28;20207;-59
2022/03/28 08:25:44;;;;;;;18.00;14.20;;;;;;;13.48;44.45;97384.91;5057983;28;20778;-58
2022/03/28 08:28:10;;;;;;;18.93;14.67;;;;;;;13.40;44.56;97383.81;5050818;28;20303;-58
2022/03/28 08:30:38;;;;;;;19.67;14.33;;;;;;;13.61;45.16;97391.59;5052470;28;20256;-59
2022/03/28 08:33:04;;;;;;;16.27;13.83;;;;;;;13.74;45.10;97396.63;5058001;28;20203;-58
2022/03/28 08:35:31;;;;;;;16.47;13.23;;;;;;;13.75;44.47;97383.16;5057693;28;20545;-58
2022/03/28 08:37:58;;;;;;;16.20;12.93;;;;;;;13.87;44.81;97378.50;5057934;28;20207;-59
2022/03/28 08:40:25;;;;;;;17.33;13.03;;;;;;;14.17;44.05;97377.44;5058057;28;20235;-58
2022/03/28 08:42:51;;;;;;;16.37;13.63;;;;;;;14.18;43.76;97373.75;5058152;28;20558;-58
2022/03/28 08:45:18;;;;;;;16.87;13.83;;;;;;;14.47;43.48;97374.47;5056492;28;20204;-58
2022/03/28 08:47:48;;;;;;;16.87;13.57;;;;;;;14.76;43.13;97368.97;5057228;28;20206;-59
2022/03/28 08:50:15;;;;;;;18.67;13.27;;;;;;;15.10;42.82;97369.09;5058734;28;20608;-58
2022/03/28 08:52:43;;;;;;;14.83;12.70;;;;;;;15.31;42.05;97370.44;5064576;28;20206;-58
2022/03/28 08:55:11;;;;;;;16.23;13.20;;;;;;;15.60;41.71;97367.53;5057157;28;20218;-58
2022/03/28 08:57:38;;;;;;;17.93;13.40;;;;;;;15.93;41.90;97360.56;5057228;28;20230;-59
2022/03/28 09:00:06;;;;;;;17.87;13.93;;;;;;;15.99;40.05;97357.25;5057465;28;20238;-58
2022/03/28 09:02:41;;;;;;;21.80;13.80;;;;;;;16.56;40.81;97346.84;5057466;28;20254;-58
2022/03/28 09:05:09;;;;;;;15.23;13.23;;;;;;;16.55;39.54;97348.63;5057549;28;20213;-58
2022/03/28 09:07:36;;;;;;;14.30;12.67;;;;;;;16.97;38.27;97345.09;5057474;28;20301;-57
2022/03/28 09:10:05;;;;;;;15.70;13.17;;;;;;;17.27;37.97;97341.75;5057582;28;20214;-59
2022/03/28 09:12:31;;;;;;;16.30;12.60;;;;;;;17.19;36.90;97334.56;5057229;28;20203;-58
2022/03/28 09:15:01;;;;;;;14.67;13.10;;;;;;;17.54;36.35;97332.50;5056661;28;20764;-58
2022/03/28 09:17:27;;;;;;;14.37;12.83;;;;;;;17.75;37.13;97335.50;5056237;28;20210;-57
2022/03/28 09:19:55;;;;;;;14.02;12.63;;;;;;;18.01;35.53;97333.44;5057080;28;20211;-57
2022/03/28 09:22:25;;;;;;;14.43;12.82;;;;;;;18.60;35.29;97328.53;5056617;28;20239;-58
2022/03/28 09:24:53;;;;;;;15.40;12.45;;;;;;;18.67;34.60;97322.28;5056760;28;20207;-58
2022/03/28 09:27:21;;;;;;;15.07;13.48;;;;;;;18.86;34.20;97326.34;5057504;28;20545;-58
2022/03/28 09:29:56;;;;;;;14.15;12.63;;;;;;;19.20;32.13;97328.63;5068983;28;20211;-59
2022/03/28 09:32:23;;;;;;;15.48;12.75;;;;;;;19.62;33.64;97323.56;5056773;28;20214;-58
2022/03/28 09:35:02;;;;;;;15.05;13.45;;;;;;;19.62;32.01;97320.88;5056876;28;20211;-59
2022/03/28 09:37:30;;;;;;;15.63;13.43;;;;;;;19.69;31.11;97316.47;5056449;28;20231;-58
2022/03/28 09:39:57;;;;;;;14.40;12.88;;;;;;;19.92;31.39;97318.22;5056554;28;20203;-59
2022/03/28 09:42:24;;;;;;;15.30;13.25;;;;;;;20.04;31.74;97312.22;5051350;28;20255;-59
2022/03/28 09:44:53;;;;;;;13.98;12.48;;;;;;;20.23;31.13;97313.47;5048590;28;20513;-58
2022/03/28 09:47:20;;;;;;;16.45;12.85;;;;;;;20.19;30.88;97312.19;5056698;28;20518;-58
2022/03/28 09:49:49;;;;;;;14.23;12.73;;;;;;;20.67;30.42;97297.31;5056813;28;20216;-59
2022/03/28 09:52:17;;;;;;;14.50;13.02;;;;;;;21.03;29.08;97297.25;5056432;28;20210;-58
2022/03/28 09:54:50;;;;;;;14.85;12.23;;;;;;;21.21;29.69;97294.97;5056531;28;20230;-59
2022/03/28 09:57:19;;;;;;;14.45;12.35;;;;;;;21.14;29.00;97284.16;5056566;28;20207;-59
2022/03/28 09:59:46;;;;;;;14.23;12.50;;;;;;;21.13;27.88;97282.50;5055624;28;20214;-59
2022/03/28 10:02:21;;;;;;;15.25;12.60;;;;;;;21.06;27.72;97276.19;5044246;28;20227;-59
2022/03/28 10:04:50;;;;;;;14.75;11.75;;;;;;;21.05;27.02;97276.38;5056131;28;20206;-59
2022/03/28 10:07:17;;;;;;;15.25;12.52;;;;;;;21.20;27.21;97271.78;5056041;28;20620;-59
2022/03/28 10:09:44;;;;;;;13.60;12.20;;;;;;;21.16;27.89;97270.50;5053461;28;20276;-59
2022/03/28 10:12:11;;;;;;;16.70;12.52;;;;;;;21.21;27.62;97262.69;5045532;28;20214;-59
2022/03/28 10:14:38;;;;;;;13.25;11.07;;;;;;;21.72;27.39;97260.56;5055712;28;20576;-58
2022/03/28 10:17:07;;;;;;;13.38;12.07;;;;;;;21.70;25.48;97258.09;5055728;28;20223;-59
2022/03/28 10:19:36;;;;;;;16.20;12.05;;;;;;;21.74;27.37;97256.66;5055542;28;20624;-58
2022/03/28 10:22:06;;;;;;;15.32;11.70;;;;;;;21.79;26.41;97243.44;5045825;28;20632;-59
2022/03/28 10:24:34;;;;;;;17.02;12.13;;;;;;;22.05;25.87;97240.06;5052910;28;20217;-60
2022/03/28 10:27:02;;;;;;;13.88;12.48;;;;;;;22.30;25.88;97243.91;5055789;28;20235;-58
2022/03/28 10:29:36;;;;;;;17.75;11.65;;;;;;;22.56;25.00;97235.09;5056487;28;20253;-59
2022/03/28 10:32:04;;;;;;;13.07;11.77;;;;;;;22.26;26.68;97231.03;5055974;28;20635;-59
2022/03/28 10:34:59;;;;;;;12.98;11.60;;;;;;;22.67;25.50;97223.72;5043146;28;20207;-59
2022/03/28 10:37:34;;;;;;;15.32;12.65;;;;;;;22.27;24.98;97221.94;5050761;28;20313;-59
2022/03/28 10:40:24;;;;;;;13.77;12.38;;;;;;;22.83;25.01;97218.97;5049404;28;20207;-59
2022/03/28 10:42:55;;;;;;;13.48;12.18;;;;;;;22.91;23.92;97210.69;5045353;28;20231;-59
2022/03/28 10:45:32;;;;;;;12.80;11.50;;;;;;;22.77;23.85;97208.00;5056266;28;20577;-59
2022/03/28 10:47:59;;;;;;;12.82;11.52;;;;;;;23.00;24.06;97202.19;5056018;28;20207;-59
2022/03/28 10:50:27;;;;;;;13.13;10.95;;;;;;;23.58;24.16;97196.97;5055725;28;20280;-60
2022/03/28 10:53:05;;;;;;;16.40;12.10;;;;;;;23.27;23.51;97182.25;5055534;28;20210;-59
2022/03/28 10:55:37;;;;;;;15.35;13.07;;;;;;;23.74;24.76;97185.69;5054781;28;20206;-58
2022/03/28 10:58:23;;;;;;;15.45;13.90;;;;;;;23.68;24.32;97178.44;5055016;28;20627;-58
2022/03/28 11:01:17;;;;;;;13.70;12.30;;;;;;;23.91;24.86;97172.56;5056037;28;20706;-58
2022/03/28 11:03:46;;;;;;;13.05;11.77;;;;;;;23.52;23.91;97170.81;5055961;28;20678;-59
2022/03/28 11:06:13;;;;;;;14.57;12.35;;;;;;;23.25;22.16;97160.03;5055312;28;20215;-59
2022/03/28 11:08:41;;;;;;;14.13;12.63;;;;;;;23.79;23.27;97157.03;5058670;28;20218;-60
2022/03/28 11:11:21;;;;;;;16.00;14.30;;;;;;;24.09;23.49;97154.59;5069697;28;20188;-58
2022/03/28 11:13:58;;;;;;;15.88;14.10;;;;;;;24.17;23.10;97150.84;5075270;28;20278;-59
2022/03/28 11:16:42;;;;;;;13.27;11.93;;;;;;;24.16;23.67;97146.50;5059560;28;20593;-60
2022/03/28 11:19:27;;;;;;;14.55;12.25;;;;;;;24.25;22.89;97139.78;5055529;28;20207;-60
2022/03/28 11:22:09;;;;;;;15.57;13.50;;;;;;;24.43;21.94;97137.19;5057911;28;20214;-58
2022/03/28 11:24:49;;;;;;;18.08;13.40;;;;;;;24.35;21.65;97129.31;5061306;28;20194;-59
2022/03/28 11:27:16;;;;;;;14.20;12.70;;;;;;;24.48;22.93;97131.94;5059385;28;20207;-59